sensor_id;sensor_type;location;lat;lon;timestamp;pressure;altitude;pressure_sealevel;temperature;humidity
71153;BME280;58822;51.438;5.436;2022-07-17T01:15:04;101112.22;;;10.04;51.48
71153;BME280;58822;51.438;5.436;2022-07-17T01:17:47;101282.88;;;11.19;51.20
71153;BME280;58822;51.438;5.436;2022-07-17T01:20:30;102190.31;;;16.84;51.77
71153;BME280;58822;51.438;5.436;2022-07-17T01:23:08;101262.84;;;10.67;51.33
71153;BME280;58822;51.438;5.436;2022-07-17T01:25:42;101355.72;;;11.08;51.64
71153;BME280;58822;51.438;5.436;2022-07-17T01:28:19;101126.63;;;9.83;51.47
71153;BME280;58822;51.438;5.436;2022-07-17T01:31:05;102501.53;;;18.44;52.05
71153;BME280;58822;51.438;5.436;2022-07-17T01:34:04;101696.84;;;13.09;51.81
71153;BME280;58822;51.438;5.436;2022-07-17T01:36:35;101261.44;;;11.00;51.86
71153;BME280;58822;51.438;5.436;2022-07-17T01:39:35;101080.66;;;9.67;52.16
71153;BME280;58822;51.438;5.436;2022-07-17T01:42:48;102487.84;;;18.25;52.44
71153;BME280;58822;51.438;5.436;2022-07-17T01:45:22;101286.75;;;10.66;51.93
71153;BME280;58822;51.438;5.436;2022-07-17T01:48:11;101443.91;;;11.73;52.65
71153;BME280;58822;51.438;5.436;2022-07-17T01:53:30;102203.75;;;16.68;52.84
71153;BME280;58822;51.438;5.436;2022-07-17T01:56:10;102487.16;;;18.27;52.60
71153;BME280;58822;51.438;5.436;2022-07-17T01:59:06;102497.66;;;18.17;52.99
71153;BME280;58822;51.438;5.436;2022-07-17T02:02:00;102495.50;;;18.12;53.11
71153;BME280;58822;51.438;5.436;2022-07-17T02:04:58;101116.63;;;9.48;52.75
71153;BME280;58822;51.438;5.436;2022-07-17T05:34:43;101241.34;;;9.45;55.24
71153;BME280;58822;51.438;5.436;2022-07-17T05:37:30;102531.56;;;17.53;55.66
71153;BME280;58822;51.438;5.436;2022-07-17T05:43:52;101460.69;;;11.19;54.79
71153;BME280;58822;51.438;5.436;2022-07-17T05:46:38;101348.38;;;10.36;54.88
71153;BME280;58822;51.438;5.436;2022-07-17T05:49:07;101661.72;;;12.43;54.03
71153;BME280;58822;51.438;5.436;2022-07-17T05:51:37;102578.78;;;18.54;54.39
71153;BME280;58822;51.438;5.436;2022-07-17T05:54:17;102523.72;;;18.95;53.58
71153;BME280;58822;51.438;5.436;2022-07-17T05:56:43;101417.75;;;12.69;53.17
71153;BME280;58822;51.438;5.436;2022-07-17T05:59:09;101301.13;;;12.64;52.06
71153;BME280;58822;51.438;5.436;2022-07-17T06:01:57;101623.94;;;14.93;50.79
71153;BME280;58822;51.438;5.436;2022-07-17T06:04:24;102564.38;;;20.71;50.77
71153;BME280;58822;51.438;5.436;2022-07-17T06:06:52;101479.81;;;14.40;50.41
71153;BME280;58822;51.438;5.436;2022-07-17T06:09:18;101364.47;;;13.66;49.92
71153;BME280;58822;51.438;5.436;2022-07-17T06:11:49;102431.06;;;19.48;50.19
71153;BME280;58822;51.438;5.436;2022-07-17T06:14:15;101286.53;;;13.73;50.03
71153;BME280;58822;51.438;5.436;2022-07-17T06:16:41;101439.75;;;15.27;49.04
71153;BME280;58822;51.438;5.436;2022-07-17T06:19:09;101484.78;;;15.39;49.05
71153;BME280;58822;51.438;5.436;2022-07-17T06:21:34;101411.75;;;15.82;48.38
71153;BME280;58822;51.438;5.436;2022-07-17T06:24:03;102199.81;;;20.18;47.60
71153;BME280;58822;51.438;5.436;2022-07-17T06:26:30;102509.19;;;22.85;47.46
71153;BME280;58822;51.438;5.436;2022-07-17T06:29:01;102535.31;;;23.11;46.52
71153;BME280;58822;51.438;5.436;2022-07-17T06:31:36;101354.16;;;16.64;45.61
71153;BME280;58822;51.438;5.436;2022-07-17T06:34:06;102539.94;;;23.76;45.92
71153;BME280;58822;51.438;5.436;2022-07-17T06:36:43;102120.50;;;21.90;44.73
71153;BME280;58822;51.438;5.436;2022-07-17T06:39:08;101497.50;;;18.56;44.65
71153;BME280;58822;51.438;5.436;2022-07-17T06:41:34;101613.09;;;18.70;44.40
71153;BME280;58822;51.438;5.436;2022-07-17T06:44:03;101454.63;;;18.66;43.74
71153;BME280;58822;51.438;5.436;2022-07-17T06:46:34;101540.63;;;19.37;43.04
71153;BME280;58822;51.438;5.436;2022-07-17T06:49:12;102577.28;;;25.14;43.37
71153;BME280;58822;51.438;5.436;2022-07-17T06:51:47;102397.84;;;24.58;42.94
71153;BME280;58822;51.438;5.436;2022-07-17T06:54:18;101651.63;;;20.19;41.87
71153;BME280;58822;51.438;5.436;2022-07-17T06:56:52;101774.22;;;21.05;41.39
71153;BME280;58822;51.438;5.436;2022-07-17T06:59:21;102092.03;;;23.59;41.42
71153;BME280;58822;51.438;5.436;2022-07-17T07:01:46;101633.41;;;21.48;40.64
71153;BME280;58822;51.438;5.436;2022-07-17T07:04:12;101974.75;;;23.63;39.86
71153;BME280;58822;51.438;5.436;2022-07-17T07:06:38;102013.38;;;23.46;40.19
71153;BME280;58822;51.438;5.436;2022-07-17T07:09:03;102051.38;;;23.53;40.22
71153;BME280;58822;51.438;5.436;2022-07-17T07:11:29;102283.28;;;25.41;39.75
71153;BME280;58822;51.438;5.436;2022-07-17T07:13:54;102217.53;;;25.84;38.69
71153;BME280;58822;51.438;5.436;2022-07-17T07:16:22;101525.66;;;21.78;38.08
71153;BME280;58822;51.438;5.436;2022-07-17T07:18:48;102588.31;;;27.94;38.01
71153;BME280;58822;51.438;5.436;2022-07-17T07:21:13;102247.81;;;25.94;38.80
71153;BME280;58822;51.438;5.436;2022-07-17T07:23:45;101964.41;;;24.23;37.94
71153;BME280;58822;51.438;5.436;2022-07-17T07:26:11;101670.78;;;22.50;38.35
71153;BME280;58822;51.438;5.436;2022-07-17T07:28:36;101631.53;;;22.16;37.76
71153;BME280;58822;51.438;5.436;2022-07-17T07:31:03;102326.94;;;25.92;38.60
71153;BME280;58822;51.438;5.436;2022-07-17T07:33:29;102334.47;;;26.04;38.07
71153;BME280;58822;51.438;5.436;2022-07-17T07:35:58;102218.63;;;25.70;37.87
71153;BME280;58822;51.438;5.436;2022-07-17T07:38:27;102283.31;;;26.21;36.80
71153;BME280;58822;51.438;5.436;2022-07-17T07:40:55;102557.03;;;28.06;36.97
71153;BME280;58822;51.438;5.436;2022-07-17T07:43:40;102268.16;;;26.59;37.36
71153;BME280;58822;51.438;5.436;2022-07-17T07:46:15;101419.44;;;21.67;36.84
71153;BME280;58822;51.438;5.436;2022-07-17T07:48:46;101970.16;;;24.93;36.04
71153;BME280;58822;51.438;5.436;2022-07-17T07:51:25;101695.56;;;23.91;35.54
71153;BME280;58822;51.438;5.436;2022-07-17T07:53:55;101524.38;;;23.22;35.58
71153;BME280;58822;51.438;5.436;2022-07-17T07:56:30;101600.16;;;23.13;35.83
71153;BME280;58822;51.438;5.436;2022-07-17T07:58:57;101564.47;;;22.97;36.41
71153;BME280;58822;51.438;5.436;2022-07-17T08:01:23;102372.56;;;27.60;36.19
71153;BME280;58822;51.438;5.436;2022-07-17T08:03:48;101649.88;;;23.08;35.96
71153;BME280;58822;51.438;5.436;2022-07-17T08:06:14;101500.59;;;22.02;36.24
71153;BME280;58822;51.438;5.436;2022-07-17T08:08:49;101451.47;;;21.25;36.36
71153;BME280;58822;51.438;5.436;2022-07-17T08:11:36;101611.47;;;21.82;37.01
71153;BME280;58822;51.438;5.436;2022-07-17T08:14:04;101642.28;;;22.04;36.36
71153;BME280;58822;51.438;5.436;2022-07-17T08:16:35;101638.13;;;21.55;36.16
71153;BME280;58822;51.438;5.436;2022-07-17T08:19:09;102166.28;;;25.00;37.61
71153;BME280;58822;51.438;5.436;2022-07-17T08:21:37;101886.81;;;23.56;36.42
71153;BME280;58822;51.438;5.436;2022-07-17T08:27:04;101626.53;;;21.18;36.88
71153;BME280;58822;51.438;5.436;2022-07-17T08:29:49;101544.91;;;21.78;36.25
71153;BME280;58822;51.438;5.436;2022-07-17T08:32:19;101338.31;;;21.32;35.88
71153;BME280;58822;51.438;5.436;2022-07-17T08:34:49;101527.34;;;22.31;35.72
71153;BME280;58822;51.438;5.436;2022-07-17T08:37:44;101468.72;;;21.56;36.37
71153;BME280;58822;51.438;5.436;2022-07-17T08:42:57;101669.78;;;22.85;36.34
71153;BME280;58822;51.438;5.436;2022-07-17T08:45:39;101398.63;;;21.70;35.56
71153;BME280;58822;51.438;5.436;2022-07-17T08:48:40;102557.66;;;28.71;35.55
71153;BME280;58822;51.438;5.436;2022-07-17T09:07:03;101749.41;;;23.41;34.98
71153;BME280;58822;51.438;5.436;2022-07-17T09:20:00;101688.25;;;23.05;34.46
71153;BME280;58822;51.438;5.436;2022-07-17T09:22:29;101850.69;;;24.70;34.34
71153;BME280;58822;51.438;5.436;2022-07-17T09:25:01;102086.72;;;25.91;33.91
71153;BME280;58822;51.438;5.436;2022-07-17T09:27:30;102555.19;;;29.52;33.23
71153;BME280;58822;51.438;5.436;2022-07-17T09:30:12;102547.06;;;29.75;33.22
71153;BME280;58822;51.438;5.436;2022-07-17T09:32:41;102107.91;;;26.84;33.12
71153;BME280;58822;51.438;5.436;2022-07-17T09:35:24;101484.91;;;22.99;33.16
71153;BME280;58822;51.438;5.436;2022-07-17T09:37:58;101701.13;;;23.99;33.56
71153;BME280;58822;51.438;5.436;2022-07-17T09:43:22;101813.69;;;24.89;33.31
71153;BME280;58822;51.438;5.436;2022-07-17T09:56:30;101640.13;;;23.86;32.74
71153;BME280;58822;51.438;5.436;2022-07-17T09:59:12;101611.84;;;23.60;33.01
71153;BME280;58822;51.438;5.436;2022-07-17T10:01:44;101562.16;;;23.66;32.71
71153;BME280;58822;51.438;5.436;2022-07-17T10:04:17;101424.84;;;23.07;32.23
71153;BME280;58822;51.438;5.436;2022-07-17T10:06:45;101433.72;;;22.90;32.07
71153;BME280;58822;51.438;5.436;2022-07-17T10:09:11;101698.09;;;24.31;32.06
71153;BME280;58822;51.438;5.436;2022-07-17T10:11:41;101404.56;;;22.84;32.00
71153;BME280;58822;51.438;5.436;2022-07-17T10:14:14;102225.38;;;27.62;31.49
71153;BME280;58822;51.438;5.436;2022-07-17T10:16:46;101571.25;;;23.32;31.64
71153;BME280;58822;51.438;5.436;2022-07-17T10:19:27;101581.22;;;24.26;31.21
71153;BME280;58822;51.438;5.436;2022-07-17T10:21:58;102159.53;;;27.46;31.68
71153;BME280;58822;51.438;5.436;2022-07-17T10:24:24;101921.22;;;25.87;31.21
71153;BME280;58822;51.438;5.436;2022-07-17T10:26:50;101542.06;;;23.89;31.93
71153;BME280;58822;51.438;5.436;2022-07-17T10:29:36;101618.53;;;23.93;31.85
71153;BME280;58822;51.438;5.436;2022-07-17T10:32:15;102404.69;;;28.67;32.33
71153;BME280;58822;51.438;5.436;2022-07-17T10:34:52;101907.91;;;25.61;32.47
71153;BME280;58822;51.438;5.436;2022-07-17T10:40:17;102152.13;;;27.36;31.54
71153;BME280;58822;51.438;5.436;2022-07-17T10:45:15;102011.88;;;26.58;31.98
71153;BME280;58822;51.438;5.436;2022-07-17T10:47:49;102077.03;;;26.57;31.84
71153;BME280;58822;51.438;5.436;2022-07-17T10:50:34;102008.75;;;26.69;31.48
71153;BME280;58822;51.438;5.436;2022-07-17T10:56:06;101463.72;;;23.80;30.86
71153;BME280;58822;51.438;5.436;2022-07-17T10:58:38;102137.44;;;27.71;30.90
71153;BME280;58822;51.438;5.436;2022-07-17T11:01:12;102042.31;;;27.21;30.96
71153;BME280;58822;51.438;5.436;2022-07-17T11:03:59;102542.25;;;30.20;31.09
71153;BME280;58822;51.438;5.436;2022-07-17T11:06:30;102180.81;;;28.00;30.69
71153;BME280;58822;51.438;5.436;2022-07-17T11:09:02;101542.34;;;24.41;31.10
71153;BME280;58822;51.438;5.436;2022-07-17T11:11:39;102152.00;;;28.09;31.07
71153;BME280;58822;51.438;5.436;2022-07-17T11:14:21;102541.00;;;30.07;31.17
71153;BME280;58822;51.438;5.436;2022-07-17T11:16:51;102146.56;;;27.04;31.02
71153;BME280;58822;51.438;5.436;2022-07-17T11:19:21;102456.25;;;29.29;31.42
71153;BME280;58822;51.438;5.436;2022-07-17T11:21:48;101986.47;;;26.87;31.84
71153;BME280;58822;51.438;5.436;2022-07-17T11:24:14;102319.41;;;29.07;30.99
71153;BME280;58822;51.438;5.436;2022-07-17T11:26:42;101540.19;;;24.78;30.24
71153;BME280;58822;51.438;5.436;2022-07-17T11:29:08;102549.34;;;30.51;30.03
71153;BME280;58822;51.438;5.436;2022-07-17T11:31:33;102519.06;;;30.45;29.34
71153;BME280;58822;51.438;5.436;2022-07-17T11:34:02;102491.84;;;30.22;29.57
71153;BME280;58822;51.438;5.436;2022-07-17T11:36:38;102637.31;;;30.02;29.29
71153;BME280;58822;51.438;5.436;2022-07-17T11:39:15;102521.91;;;29.92;29.43
71153;BME280;58822;51.438;5.436;2022-07-17T11:41:48;102008.66;;;27.16;30.08
71153;BME280;58822;51.438;5.436;2022-07-17T11:44:20;101527.81;;;24.51;29.94
71153;BME280;58822;51.438;5.436;2022-07-17T11:46:48;102516.69;;;30.24;28.54
71153;BME280;58822;51.438;5.436;2022-07-17T11:49:30;102489.69;;;30.10;28.84
71153;BME280;58822;51.438;5.436;2022-07-17T11:52:13;102021.16;;;27.21;28.99
71153;BME280;58822;51.438;5.436;2022-07-17T11:54:47;102476.81;;;29.64;29.00
71153;BME280;58822;51.438;5.436;2022-07-17T11:57:14;102144.44;;;27.69;28.69
71153;BME280;58822;51.438;5.436;2022-07-17T11:59:39;102163.84;;;28.22;28.07
71153;BME280;58822;51.438;5.436;2022-07-17T12:02:09;102512.38;;;30.27;28.03
71153;BME280;58822;51.438;5.436;2022-07-17T12:04:35;102313.22;;;29.08;27.46
71153;BME280;58822;51.438;5.436;2022-07-17T12:07:02;102504.72;;;30.38;27.15
71153;BME280;58822;51.438;5.436;2022-07-17T12:09:29;102535.66;;;30.36;27.02
71153;BME280;58822;51.438;5.436;2022-07-17T12:11:59;102530.91;;;30.26;27.11
71153;BME280;58822;51.438;5.436;2022-07-17T12:14:24;102059.50;;;27.34;26.95
71153;BME280;58822;51.438;5.436;2022-07-17T12:16:50;102525.06;;;30.07;26.42
71153;BME280;58822;51.438;5.436;2022-07-17T12:19:18;102119.94;;;27.49;26.38
71153;BME280;58822;51.438;5.436;2022-07-17T12:22:00;102308.16;;;28.87;26.77
71153;BME280;58822;51.438;5.436;2022-07-17T12:24:29;102497.16;;;30.22;26.65
71153;BME280;58822;51.438;5.436;2022-07-17T12:27:03;101601.06;;;24.85;26.15
71153;BME280;58822;51.438;5.436;2022-07-17T12:29:38;102055.81;;;27.05;26.46
71153;BME280;58822;51.438;5.436;2022-07-17T12:32:15;101919.38;;;26.82;26.72
71153;BME280;58822;51.438;5.436;2022-07-17T12:34:43;101841.00;;;26.31;26.82
71153;BME280;58822;51.438;5.436;2022-07-17T12:39:37;101902.16;;;26.94;26.76
71153;BME280;58822;51.438;5.436;2022-07-17T12:42:03;101946.28;;;26.97;27.42
71153;BME280;58822;51.438;5.436;2022-07-17T12:44:29;102110.19;;;27.99;27.92
71153;BME280;58822;51.438;5.436;2022-07-17T12:46:54;102131.69;;;28.10;27.35
71153;BME280;58822;51.438;5.436;2022-07-17T12:49:20;101442.16;;;24.13;27.99
71153;BME280;58822;51.438;5.436;2022-07-17T12:51:45;102533.03;;;30.07;27.70
71153;BME280;58822;51.438;5.436;2022-07-17T12:54:11;102005.66;;;27.07;28.02
71153;BME280;58822;51.438;5.436;2022-07-17T12:56:37;101899.53;;;26.43;28.71
71153;BME280;58822;51.438;5.436;2022-07-17T12:59:02;101502.09;;;24.68;27.90
71153;BME280;58822;51.438;5.436;2022-07-17T13:01:28;102435.81;;;29.84;28.42
71153;BME280;58822;51.438;5.436;2022-07-17T13:03:54;101624.47;;;24.78;29.03
71153;BME280;58822;51.438;5.436;2022-07-17T13:06:22;102564.22;;;30.15;28.40
71153;BME280;58822;51.438;5.436;2022-07-17T13:08:47;102336.25;;;29.38;28.68
71153;BME280;58822;51.438;5.436;2022-07-17T13:11:13;102115.25;;;28.20;29.39
71153;BME280;58822;51.438;5.436;2022-07-17T13:13:39;102160.50;;;28.55;29.20
71153;BME280;58822;51.438;5.436;2022-07-17T13:16:04;101740.50;;;25.99;29.06
71153;BME280;58822;51.438;5.436;2022-07-17T13:18:30;102114.59;;;28.57;28.94
71153;BME280;58822;51.438;5.436;2022-07-17T13:20:58;102026.19;;;28.24;28.77
71153;BME280;58822;51.438;5.436;2022-07-17T13:23:24;101938.84;;;27.38;28.29
71153;BME280;58822;51.438;5.436;2022-07-17T13:25:54;102271.38;;;29.58;28.61
71153;BME280;58822;51.438;5.436;2022-07-17T13:28:21;102209.97;;;28.56;28.67
71153;BME280;58822;51.438;5.436;2022-07-17T13:30:46;102248.41;;;29.29;28.42
71153;BME280;58822;51.438;5.436;2022-07-17T13:33:12;102109.22;;;28.26;28.62
71153;BME280;58822;51.438;5.436;2022-07-17T13:35:38;102079.63;;;28.10;28.42
71153;BME280;58822;51.438;5.436;2022-07-17T13:38:03;101682.88;;;25.86;28.69
71153;BME280;58822;51.438;5.436;2022-07-17T13:40:33;101587.69;;;25.54;28.63
71153;BME280;58822;51.438;5.436;2022-07-17T13:42:59;102091.22;;;28.42;28.45
71153;BME280;58822;51.438;5.436;2022-07-17T13:45:25;101977.00;;;27.46;28.46
71153;BME280;58822;51.438;5.436;2022-07-17T13:47:50;102249.69;;;29.75;28.27
71153;BME280;58822;51.438;5.436;2022-07-17T13:50:16;101987.06;;;27.85;28.16
71153;BME280;58822;51.438;5.436;2022-07-17T13:52:42;101490.22;;;25.30;28.65
71153;BME280;58822;51.438;5.436;2022-07-17T13:55:08;101637.34;;;25.92;29.07
71153;BME280;58822;51.438;5.436;2022-07-17T13:57:34;102118.50;;;28.68;28.89
71153;BME280;58822;51.438;5.436;2022-07-17T13:59:59;101922.41;;;27.77;28.91
71153;BME280;58822;51.438;5.436;2022-07-17T14:02:26;102020.75;;;28.49;28.70
71153;BME280;58822;51.438;5.436;2022-07-17T14:04:51;102205.44;;;29.74;28.83
71153;BME280;58822;51.438;5.436;2022-07-17T14:07:17;102274.47;;;29.74;28.69
71153;BME280;58822;51.438;5.436;2022-07-17T14:09:45;102509.72;;;30.92;28.89
71153;BME280;58822;51.438;5.436;2022-07-17T14:12:11;102208.88;;;29.70;28.94
71153;BME280;58822;51.438;5.436;2022-07-17T14:14:36;102159.31;;;29.05;29.46
71153;BME280;58822;51.438;5.436;2022-07-17T14:17:01;101402.03;;;25.19;28.99
71153;BME280;58822;51.438;5.436;2022-07-17T14:19:27;102206.94;;;29.99;28.27
71153;BME280;58822;51.438;5.436;2022-07-17T14:21:52;101514.66;;;25.79;28.52
71153;BME280;58822;51.438;5.436;2022-07-17T14:24:18;102497.97;;;31.19;28.49
71153;BME280;58822;51.438;5.436;2022-07-17T14:26:43;102453.59;;;31.18;28.69
71153;BME280;58822;51.438;5.436;2022-07-17T14:29:10;102454.50;;;31.18;28.37
71153;BME280;58822;51.438;5.436;2022-07-17T14:31:35;102316.19;;;30.82;28.52
71153;BME280;58822;51.438;5.436;2022-07-17T14:34:01;102386.16;;;31.17;28.25
71153;BME280;58822;51.438;5.436;2022-07-17T14:36:26;102204.25;;;30.32;28.43
71153;BME280;58822;51.438;5.436;2022-07-17T14:38:55;101419.44;;;25.98;28.29
71153;BME280;58822;51.438;5.436;2022-07-17T14:41:23;101831.25;;;27.97;28.43
71153;BME280;58822;51.438;5.436;2022-07-17T14:43:48;102372.63;;;31.46;28.42
71153;BME280;58822;51.438;5.436;2022-07-17T14:46:20;101556.78;;;26.92;28.01
71153;BME280;58822;51.438;5.436;2022-07-17T14:48:46;101731.47;;;27.94;28.00
71153;BME280;58822;51.438;5.436;2022-07-17T14:51:11;101745.91;;;28.06;28.49
71153;BME280;58822;51.438;5.436;2022-07-17T14:53:37;102009.72;;;28.99;28.06
71153;BME280;58822;51.438;5.436;2022-07-17T14:56:02;101704.69;;;27.82;28.38
71153;BME280;58822;51.438;5.436;2022-07-17T14:58:28;102008.59;;;29.58;28.57
71153;BME280;58822;51.438;5.436;2022-07-17T15:00:53;101815.06;;;28.19;28.09
71153;BME280;58822;51.438;5.436;2022-07-17T15:03:18;101931.56;;;28.50;28.51
71153;BME280;58822;51.438;5.436;2022-07-17T15:05:44;102211.91;;;30.58;27.88
71153;BME280;58822;51.438;5.436;2022-07-17T15:08:09;101889.38;;;28.57;28.05
71153;BME280;58822;51.438;5.436;2022-07-17T15:10:35;101939.69;;;29.24;27.42
71153;BME280;58822;51.438;5.436;2022-07-17T15:13:00;101783.41;;;27.89;27.91
71153;BME280;58822;51.438;5.436;2022-07-17T15:15:26;102100.50;;;29.90;27.39
71153;BME280;58822;51.438;5.436;2022-07-17T15:17:52;101531.53;;;26.71;27.80
71153;BME280;58822;51.438;5.436;2022-07-17T15:20:17;101439.66;;;25.71;27.82
71153;BME280;58822;51.438;5.436;2022-07-17T15:22:43;101543.81;;;26.69;27.75
71153;BME280;58822;51.438;5.436;2022-07-17T15:25:09;102060.41;;;29.09;28.08
71153;BME280;58822;51.438;5.436;2022-07-17T15:27:34;101758.91;;;27.98;27.91
71153;BME280;58822;51.438;5.436;2022-07-17T15:30:00;102075.84;;;29.24;27.77
71153;BME280;58822;51.438;5.436;2022-07-17T15:32:26;102035.06;;;29.55;27.61
71153;BME280;58822;51.438;5.436;2022-07-17T15:34:51;101934.75;;;28.70;27.74
71153;BME280;58822;51.438;5.436;2022-07-17T15:42:38;101739.13;;;27.22;27.63
71153;BME280;58822;51.438;5.436;2022-07-17T17:34:11;102246.47;;;30.58;29.13
71153;BME280;58822;51.438;5.436;2022-07-17T17:36:49;101225.53;;;24.65;29.37
71153;BME280;58822;51.438;5.436;2022-07-17T17:39:24;101478.63;;;25.52;29.00
71153;BME280;58822;51.438;5.436;2022-07-17T17:42:10;101133.00;;;23.99;29.68
71153;BME280;58822;51.438;5.436;2022-07-17T17:44:37;101877.22;;;27.99;28.74
71153;BME280;58822;51.438;5.436;2022-07-17T17:47:06;101682.59;;;26.58;29.82
71153;BME280;58822;51.438;5.436;2022-07-17T17:49:32;101491.63;;;25.46;29.46
71153;BME280;58822;51.438;5.436;2022-07-17T17:52:00;101363.03;;;25.10;29.24
71153;BME280;58822;51.438;5.436;2022-07-17T17:54:37;101203.16;;;24.00;29.10
71153;BME280;58822;51.438;5.436;2022-07-17T17:57:10;101236.09;;;24.14;28.90
71153;BME280;58822;51.438;5.436;2022-07-17T17:59:53;101283.53;;;24.41;28.67
71153;BME280;58822;51.438;5.436;2022-07-17T18:02:31;101396.41;;;25.10;29.25
71153;BME280;58822;51.438;5.436;2022-07-17T18:05:02;101885.56;;;28.14;29.01
71153;BME280;58822;51.438;5.436;2022-07-17T18:07:42;102239.59;;;30.29;28.77
71153;BME280;58822;51.438;5.436;2022-07-17T18:10:16;101317.19;;;24.50;29.36
71153;BME280;58822;51.438;5.436;2022-07-17T18:13:04;101563.22;;;25.84;29.55
71153;BME280;58822;51.438;5.436;2022-07-17T18:15:35;101301.69;;;24.35;29.32
71153;BME280;58822;51.438;5.436;2022-07-17T18:18:08;101320.72;;;24.26;29.36
71153;BME280;58822;51.438;5.436;2022-07-17T19:54:59;102071.81;;;25.70;34.22
71153;BME280;58822;51.438;5.436;2022-07-17T19:57:32;101783.47;;;24.38;34.17
71153;BME280;58822;51.438;5.436;2022-07-17T19:59:58;101606.78;;;22.85;34.31
71153;BME280;58822;51.438;5.436;2022-07-17T20:02:23;102010.47;;;25.53;34.32
71153;BME280;58822;51.438;5.436;2022-07-17T20:04:49;102044.47;;;25.68;34.91
71153;BME280;58822;51.438;5.436;2022-07-17T20:07:14;102294.81;;;26.88;35.00
71153;BME280;58822;51.438;5.436;2022-07-17T20:09:39;102119.53;;;25.76;35.09
71153;BME280;58822;51.438;5.436;2022-07-17T20:12:05;102274.25;;;26.79;35.49
71153;BME280;58822;51.438;5.436;2022-07-17T20:14:31;101801.38;;;23.66;35.06
71153;BME280;58822;51.438;5.436;2022-07-17T20:16:56;102011.75;;;24.60;35.69
71153;BME280;58822;51.438;5.436;2022-07-17T20:19:22;102151.28;;;25.78;35.67
71153;BME280;58822;51.438;5.436;2022-07-17T20:21:47;102249.25;;;26.27;34.92
71153;BME280;58822;51.438;5.436;2022-07-17T20:24:16;101605.56;;;22.96;35.82
71153;BME280;58822;51.438;5.436;2022-07-17T20:26:42;101695.81;;;22.98;35.56
71153;BME280;58822;51.438;5.436;2022-07-17T20:29:08;101212.00;;;20.63;36.17
71153;BME280;58822;51.438;5.436;2022-07-17T20:31:33;101784.38;;;23.20;36.13
71153;BME280;58822;51.438;5.436;2022-07-17T20:34:01;102245.38;;;26.40;36.50
71153;BME280;58822;51.438;5.436;2022-07-17T20:36:27;102066.34;;;25.24;36.22
71153;BME280;58822;51.438;5.436;2022-07-17T20:38:52;102339.28;;;26.33;36.06
71153;BME280;58822;51.438;5.436;2022-07-17T20:41:17;102197.75;;;25.55;36.62
71153;BME280;58822;51.438;5.436;2022-07-17T20:43:44;101931.56;;;23.76;36.64
71153;BME280;58822;51.438;5.436;2022-07-17T20:46:17;101668.25;;;22.16;37.12
71153;BME280;58822;51.438;5.436;2022-07-17T20:48:45;101950.41;;;23.85;36.87
71153;BME280;58822;51.438;5.436;2022-07-17T20:51:11;101272.59;;;20.03;36.37
71153;BME280;58822;51.438;5.436;2022-07-17T20:53:36;102115.06;;;24.93;36.91
71153;BME280;58822;51.438;5.436;2022-07-17T20:56:02;102252.53;;;26.01;37.02
71153;BME280;58822;51.438;5.436;2022-07-17T20:58:30;102183.25;;;24.87;36.58
71153;BME280;58822;51.438;5.436;2022-07-17T21:00:56;102247.81;;;25.94;36.70
71153;BME280;58822;51.438;5.436;2022-07-17T21:03:25;101144.22;;;19.62;37.24
71153;BME280;58822;51.438;5.436;2022-07-17T21:05:50;101684.50;;;22.44;37.26
71153;BME280;58822;51.438;5.436;2022-07-17T21:08:18;101688.53;;;22.20;36.62
71153;BME280;58822;51.438;5.436;2022-07-17T21:10:45;101940.22;;;23.73;36.63
71153;BME280;58822;51.438;5.436;2022-07-17T21:13:12;102323.38;;;25.72;36.99
71153;BME280;58822;51.438;5.436;2022-07-17T21:15:37;101853.91;;;22.73;36.86
71153;BME280;58822;51.438;5.436;2022-07-17T21:18:03;101187.41;;;19.39;36.34
71153;BME280;58822;51.438;5.436;2022-07-17T21:20:28;101935.56;;;23.49;37.05
71153;BME280;58822;51.438;5.436;2022-07-17T21:22:53;102273.28;;;25.53;37.52
71153;BME280;58822;51.438;5.436;2022-07-17T21:25:21;102114.78;;;24.67;37.19
71153;BME280;58822;51.438;5.436;2022-07-17T21:27:47;102236.72;;;25.41;36.83
71153;BME280;58822;51.438;5.436;2022-07-17T21:30:15;102229.31;;;25.32;36.66
71153;BME280;58822;51.438;5.436;2022-07-17T21:32:42;101197.13;;;19.09;37.34
71153;BME280;58822;51.438;5.436;2022-07-17T21:35:10;101268.28;;;19.87;36.42
71153;BME280;58822;51.438;5.436;2022-07-17T21:37:35;100989.94;;;18.24;37.42
71153;BME280;58822;51.438;5.436;2022-07-17T21:40:04;102046.72;;;23.83;37.06
71153;BME280;58822;51.438;5.436;2022-07-17T21:42:30;101527.38;;;21.07;37.72
71153;BME280;58822;51.438;5.436;2022-07-17T21:44:58;101739.34;;;21.88;37.63
71153;BME280;58822;51.438;5.436;2022-07-17T21:47:23;101891.88;;;22.80;37.83
71153;BME280;58822;51.438;5.436;2022-07-17T21:49:48;101969.44;;;23.25;37.28
71153;BME280;58822;51.438;5.436;2022-07-17T21:52:14;101540.50;;;20.91;37.82
71153;BME280;58822;51.438;5.436;2022-07-17T21:54:40;102017.63;;;23.62;37.71
71153;BME280;58822;51.438;5.436;2022-07-17T21:57:06;101972.22;;;23.11;37.40
71153;BME280;58822;51.438;5.436;2022-07-17T21:59:31;102075.78;;;24.04;37.61
71153;BME280;58822;51.438;5.436;2022-07-17T22:01:57;101911.06;;;22.79;37.46
71153;BME280;58822;51.438;5.436;2022-07-17T22:04:22;101770.63;;;22.17;37.05
71153;BME280;58822;51.438;5.436;2022-07-17T22:06:48;101685.84;;;21.33;37.56
71153;BME280;58822;51.438;5.436;2022-07-17T22:09:13;102264.81;;;24.66;37.30
71153;BME280;58822;51.438;5.436;2022-07-17T22:11:41;101885.59;;;22.26;37.51
71153;BME280;58822;51.438;5.436;2022-07-17T22:14:07;102164.13;;;23.99;37.08
71153;BME280;58822;51.438;5.436;2022-07-17T22:16:33;101864.28;;;22.20;37.64
71153;BME280;58822;51.438;5.436;2022-07-17T22:18:58;102189.25;;;24.46;37.42